Time;durP1;ratioP1;P1;durP2;ratioP2;P2;SDS_P1;SDS_P2;PMS_P1;PMS_P2;Temp;Humidity;BMP_temperature;BMP_pressure;BME280_temperature;BME280_humidity;BME280_pressure;Samples;Min_cycle;Max_cycle;Signal;HPM_P1;HPM_P2
2023/11/22 00:00:51;;;;;;;;;;;;;;;5.74;66.61;98327.75;5000430;28;20294;-75
2023/11/22 00:03:40;;;;;;;;;;;;;;;5.57;65.59;98317.25;5004621;28;20050;-75
2023/11/22 00:06:29;;;;;;;;;;;;;;;5.56;66.11;98329.09;5003242;28;19933;-75
2023/11/22 00:09:22;;;;;;;;;;;;;;;5.67;64.92;98330.72;4984767;28;20025;-76
2023/11/22 00:12:11;;;;;;;;;;;;;;;5.53;63.85;98322.34;5000575;28;20386;-75
2023/11/22 00:14:59;;;;;;;;;;;;;;;5.48;64.46;98329.63;5007507;28;19933;-75
2023/11/22 00:17:47;;;;;;;;;;;;;;;5.63;62.77;98326.94;4997170;28;20005;-75
2023/11/22 00:20:36;;;;;;;;;;;;;;;5.58;62.81;98331.53;5002164;28;19929;-75
2023/11/22 00:23:29;;;;;;;;;;;;;;;5.55;63.21;98330.19;5000210;28;20315;-75
2023/11/22 00:26:17;;;;;;;;;;;;;;;5.63;63.42;98334.22;5001359;28;19926;-75
2023/11/22 00:29:14;;;;;;;;;;;;;;;5.55;66.21;98335.56;5004687;28;19991;-75
2023/11/22 00:32:04;;;;;;;;;;;;;;;5.59;66.82;98333.94;5003620;28;20095;-75
2023/11/22 00:34:53;;;;;;;;;;;;;;;5.20;67.26;98339.81;5001954;28;19940;-75
2023/11/22 00:37:44;;;;;;;;;;;;;;;5.45;67.41;98340.94;5004997;28;20012;-77
2023/11/22 00:40:33;;;;;;;;;;;;;;;5.58;67.46;98339.59;5002223;28;19926;-76
2023/11/22 00:43:21;;;;;;;;;;;;;;;5.61;66.89;98337.19;5004206;28;20392;-75
2023/11/22 00:46:11;;;;;;;;;;;;;;;5.69;66.38;98339.34;5001665;28;19945;-75
2023/11/22 00:48:59;;;;;;;;;;;;;;;5.75;65.95;98335.59;5005804;28;19933;-75
2023/11/22 00:51:47;;;;;;;;;;;;;;;5.82;66.34;98339.91;5003420;28;19932;-75
2023/11/22 00:54:35;;;;;;;;;;;;;;;5.70;66.14;98349.06;5000417;28;19929;-78
2023/11/22 00:57:26;;;;;;;;;;;;;;;5.38;66.34;98359.25;4992055;28;20036;-75
2023/11/22 01:00:15;;;;;;;;;;;;;;;5.60;66.43;98359.84;5003827;28;19934;-75
2023/11/22 01:03:04;;;;;;;;;;;;;;;5.55;66.14;98373.31;5005734;28;19933;-75
2023/11/22 01:05:53;;;;;;;;;;;;;;;5.19;65.18;98375.09;5004382;28;20311;-76
2023/11/22 01:08:41;;;;;;;;;;;;;;;5.26;65.02;98375.66;4989604;28;20004;-75
2023/11/22 01:11:29;;;;;;;;;;;;;;;4.98;62.31;98379.59;4998393;28;19936;-75
2023/11/22 01:14:19;;;;;;;;;;;;;;;4.75;61.71;98390.81;4996149;28;19993;-76
2023/11/22 01:17:08;;;;;;;;;;;;;;;4.71;61.47;98393.22;5002462;28;19925;-73
2023/11/22 01:19:58;;;;;;;;;;;;;;;4.72;60.64;98394.81;5001792;28;20585;-72
2023/11/22 01:22:48;;;;;;;;;;;;;;;4.44;60.98;98396.81;4998779;28;19988;-72
2023/11/22 01:25:36;;;;;;;;;;;;;;;4.37;61.79;98392.75;5004843;28;19964;-72
2023/11/22 01:28:24;;;;;;;;;;;;;;;4.45;60.85;98400.31;5000217;28;19926;-72
2023/11/22 01:31:14;;;;;;;;;;;;;;;4.37;60.89;98403.50;4989228;28;19925;-72
2023/11/22 01:34:03;;;;;;;;;;;;;;;4.32;60.63;98395.41;4986357;28;20031;-73
2023/11/22 01:36:53;;;;;;;;;;;;;;;4.32;60.60;98398.09;4989365;28;19936;-73
2023/11/22 01:39:43;;;;;;;;;;;;;;;4.35;60.77;98419.09;4996842;28;20012;-72
2023/11/22 01:42:31;;;;;;;;;;;;;;;4.20;61.64;98407.13;5003644;28;20384;-72
2023/11/22 01:45:21;;;;;;;;;;;;;;;4.13;61.43;98406.56;4996721;28;20300;-72
2023/11/22 01:48:11;;;;;;;;;;;;;;;4.35;61.37;98424.47;4996025;28;19926;-72
2023/11/22 01:50:59;;;;;;;;;;;;;;;4.17;61.49;98421.13;5005461;28;19972;-72
2023/11/22 01:53:49;;;;;;;;;;;;;;;4.02;62.01;98412.91;4996012;28;19926;-73
2023/11/22 01:56:37;;;;;;;;;;;;;;;4.05;61.42;98415.09;4981269;28;19926;-72
2023/11/22 01:59:26;;;;;;;;;;;;;;;4.06;62.17;98414.03;4988229;28;19925;-72
2023/11/22 02:02:14;;;;;;;;;;;;;;;4.15;61.98;98417.84;4992829;28;19929;-72
2023/11/22 02:05:04;;;;;;;;;;;;;;;4.32;62.26;98427.69;5012002;28;20020;-73
2023/11/22 02:07:52;;;;;;;;;;;;;;;4.05;62.01;98425.88;4996975;28;20035;-72
2023/11/22 02:10:41;;;;;;;;;;;;;;;4.25;62.49;98427.88;4999524;28;19926;-72
2023/11/22 02:13:30;;;;;;;;;;;;;;;4.19;61.66;98429.72;5010852;28;20303;-73
2023/11/22 02:16:18;;;;;;;;;;;;;;;4.08;62.56;98429.91;5009683;28;20399;-73
2023/11/22 02:19:07;;;;;;;;;;;;;;;4.26;62.00;98431.38;5012654;28;19929;-73
2023/11/22 02:21:56;;;;;;;;;;;;;;;4.13;61.43;98433.44;4995795;28;19932;-73
2023/11/22 02:24:45;;;;;;;;;;;;;;;3.93;62.55;98434.06;4999229;28;19933;-73
2023/11/22 02:27:34;;;;;;;;;;;;;;;3.87;62.40;98439.66;5011572;28;19929;-73
2023/11/22 02:30:23;;;;;;;;;;;;;;;3.92;62.33;98450.47;5004295;28;19933;-73
2023/11/22 02:33:11;;;;;;;;;;;;;;;3.91;62.25;98451.53;4999076;28;20008;-73
2023/11/22 02:35:59;;;;;;;;;;;;;;;3.88;62.19;98446.66;5009920;28;19925;-73
2023/11/22 02:38:47;;;;;;;;;;;;;;;3.75;62.46;98452.44;4998600;28;19925;-73
2023/11/22 02:41:37;;;;;;;;;;;;;;;3.65;62.79;98458.53;4997301;28;20428;-73
2023/11/22 02:44:25;;;;;;;;;;;;;;;3.74;63.35;98461.59;5012388;28;19925;-73
2023/11/22 02:47:13;;;;;;;;;;;;;;;3.79;62.70;98458.94;4998917;28;19940;-73
2023/11/22 02:50:02;;;;;;;;;;;;;;;3.86;62.53;98448.78;5008240;28;19925;-74
2023/11/22 02:52:50;;;;;;;;;;;;;;;3.82;62.57;98453.06;5010846;28;19929;-73
2023/11/22 02:55:39;;;;;;;;;;;;;;;3.67;62.53;98454.53;5005039;28;20466;-73
2023/11/22 02:58:29;;;;;;;;;;;;;;;3.72;63.26;98461.00;5011356;28;19925;-74
2023/11/22 03:01:45;;;;;;;;;;;;;;;3.94;63.14;98467.97;5007285;28;19925;-73
2023/11/22 03:04:58;;;;;;;;;;;;;;;4.01;63.21;98467.75;5010641;28;19929;-73
2023/11/22 03:07:46;;;;;;;;;;;;;;;4.19;62.61;98474.63;5010934;28;19930;-73
2023/11/22 03:10:35;;;;;;;;;;;;;;;4.45;62.76;98481.84;5010972;28;20011;-73
2023/11/22 03:13:23;;;;;;;;;;;;;;;4.54;62.06;98484.06;5011070;28;20016;-74
2023/11/22 03:16:13;;;;;;;;;;;;;;;4.41;61.49;98483.41;5009729;28;19933;-73
2023/11/22 03:19:02;;;;;;;;;;;;;;;4.33;62.34;98483.91;5009509;28;20387;-73
2023/11/22 03:21:50;;;;;;;;;;;;;;;4.37;62.06;98484.22;5013030;28;20353;-72
2023/11/22 03:24:38;;;;;;;;;;;;;;;4.32;61.99;98484.97;5012985;28;19929;-73
2023/11/22 03:27:26;;;;;;;;;;;;;;;4.08;62.71;98495.25;5000136;28;19933;-73
2023/11/22 03:30:15;;;;;;;;;;;;;;;4.27;62.22;98494.88;4996143;28;20437;-73
2023/11/22 03:33:04;;;;;;;;;;;;;;;4.38;62.53;98504.66;4995814;28;19929;-73
2023/11/22 03:35:54;;;;;;;;;;;;;;;4.29;61.99;98509.69;4995224;28;20019;-73
2023/11/22 03:38:42;;;;;;;;;;;;;;;4.41;62.05;98510.31;5014262;28;20401;-73
2023/11/22 03:41:33;;;;;;;;;;;;;;;4.18;61.29;98503.41;5012571;28;19956;-73
2023/11/22 03:44:21;;;;;;;;;;;;;;;4.06;61.61;98501.94;5000744;28;20335;-73
2023/11/22 03:47:11;;;;;;;;;;;;;;;3.88;61.61;98505.78;5015165;28;19925;-74
2023/11/22 03:50:02;;;;;;;;;;;;;;;3.88;61.77;98511.16;5019995;28;19926;-76
2023/11/22 03:52:51;;;;;;;;;;;;;;;3.93;62.04;98508.53;5005481;28;19937;-74
2023/11/22 03:55:39;;;;;;;;;;;;;;;3.92;61.62;98525.72;5005418;28;19932;-74
2023/11/22 03:58:27;;;;;;;;;;;;;;;4.01;61.34;98521.53;5009340;28;20047;-73
2023/11/22 04:01:15;;;;;;;;;;;;;;;3.80;61.72;98533.13;5003113;28;20311;-73
2023/11/22 04:04:08;;;;;;;;;;;;;;;3.72;61.85;98531.69;5010517;28;20059;-73
2023/11/22 04:06:57;;;;;;;;;;;;;;;3.84;61.41;98529.69;5008679;28;19940;-73
2023/11/22 04:09:45;;;;;;;;;;;;;;;3.83;61.39;98546.06;5010700;28;20007;-72
2023/11/22 04:12:33;;;;;;;;;;;;;;;3.86;61.28;98542.88;5007136;28;19933;-72
2023/11/22 04:15:23;;;;;;;;;;;;;;;3.92;60.91;98547.25;5011225;28;19926;-73
2023/11/22 04:18:11;;;;;;;;;;;;;;;3.77;61.59;98553.25;4998627;28;19926;-72
2023/11/22 04:21:01;;;;;;;;;;;;;;;3.85;61.78;98554.69;5010937;28;20372;-72
2023/11/22 04:23:53;;;;;;;;;;;;;;;3.85;61.58;98565.44;5003245;28;19925;-72
2023/11/22 04:26:41;;;;;;;;;;;;;;;3.85;61.05;98568.94;5008874;28;20008;-72
2023/11/22 04:29:29;;;;;;;;;;;;;;;3.90;61.67;98569.00;5007581;28;19942;-73
2023/11/22 04:32:17;;;;;;;;;;;;;;;3.75;62.02;98576.06;5010410;28;19976;-73
2023/11/22 04:35:05;;;;;;;;;;;;;;;3.76;62.11;98585.75;5011850;28;19929;-73
2023/11/22 04:37:55;;;;;;;;;;;;;;;3.89;61.53;98588.88;5009650;28;20299;-74
2023/11/22 04:40:46;;;;;;;;;;;;;;;3.82;61.72;98584.75;4989832;28;19929;-73
2023/11/22 04:43:34;;;;;;;;;;;;;;;3.93;61.34;98581.13;4991567;28;20380;-72
2023/11/22 04:46:22;;;;;;;;;;;;;;;4.17;61.70;98582.47;4988278;28;19933;-74
2023/11/22 04:49:10;;;;;;;;;;;;;;;4.25;61.43;98586.56;4985933;28;20432;-75
2023/11/22 04:51:58;;;;;;;;;;;;;;;4.37;61.81;98591.81;4985872;28;19937;-75
2023/11/22 04:54:46;;;;;;;;;;;;;;;4.30;61.82;98599.25;4989514;28;19933;-74
2023/11/22 04:57:36;;;;;;;;;;;;;;;4.40;61.24;98612.81;4990464;28;20288;-74
2023/11/22 05:00:24;;;;;;;;;;;;;;;4.19;61.44;98604.53;4988117;28;19926;-73
2023/11/22 05:03:12;;;;;;;;;;;;;;;4.10;63.17;98595.31;4988859;28;19926;-73
2023/11/22 05:06:01;;;;;;;;;;;;;;;3.96;61.46;98602.13;4988124;28;20015;-73
2023/11/22 05:08:49;;;;;;;;;;;;;;;4.01;61.36;98599.50;4989662;28;19926;-73
2023/11/22 05:11:37;;;;;;;;;;;;;;;3.96;62.17;98604.81;4990736;28;19926;-73
2023/11/22 05:14:26;;;;;;;;;;;;;;;4.10;61.50;98603.38;4990688;28;19933;-73
2023/11/22 05:17:16;;;;;;;;;;;;;;;4.01;61.04;98598.69;4985796;28;19945;-72
2023/11/22 05:20:08;;;;;;;;;;;;;;;3.94;60.68;98598.88;4989313;28;19926;-73
2023/11/22 05:22:56;;;;;;;;;;;;;;;4.05;60.22;98602.47;4989829;28;20388;-73
2023/11/22 05:25:45;;;;;;;;;;;;;;;4.04;59.95;98619.69;4990719;28;20371;-73
2023/11/22 05:28:34;;;;;;;;;;;;;;;3.92;59.64;98623.31;4985460;28;19937;-73
2023/11/22 05:31:24;;;;;;;;;;;;;;;4.09;60.02;98636.69;4973513;28;20392;-73
2023/11/22 05:34:13;;;;;;;;;;;;;;;3.87;59.67;98630.50;4983668;28;20910;-73
2023/11/22 05:37:00;;;;;;;;;;;;;;;3.79;59.70;98631.78;4989264;28;19929;-73
2023/11/22 05:39:50;;;;;;;;;;;;;;;3.59;60.32;98637.69;5002017;28;20349;-73
2023/11/22 05:42:38;;;;;;;;;;;;;;;3.55;60.32;98651.84;4995610;28;19931;-74
2023/11/22 05:45:26;;;;;;;;;;;;;;;3.51;60.31;98659.59;5005685;28;20091;-73
2023/11/22 05:48:16;;;;;;;;;;;;;;;3.54;60.91;98661.78;5005426;28;19932;-73
2023/11/22 05:51:04;;;;;;;;;;;;;;;3.68;60.39;98663.06;5003194;28;19932;-72
2023/11/22 05:53:52;;;;;;;;;;;;;;;3.72;60.42;98670.63;5005021;28;20303;-72
2023/11/22 05:56:41;;;;;;;;;;;;;;;3.72;59.63;98678.69;5005321;28;19940;-73
2023/11/22 05:59:29;;;;;;;;;;;;;;;3.73;59.50;98656.97;5009232;28;19932;-73
2023/11/22 06:02:20;;;;;;;;;;;;;;;3.76;59.40;98664.50;5005483;28;19929;-72
2023/11/22 06:05:11;;;;;;;;;;;;;;;3.78;59.31;98666.94;5010622;28;20363;-72
2023/11/22 06:07:59;;;;;;;;;;;;;;;3.73;59.65;98680.31;5007283;28;19929;-73
2023/11/22 06:10:47;;;;;;;;;;;;;;;3.60;59.98;98682.28;5009678;28;19929;-73
2023/11/22 06:13:36;;;;;;;;;;;;;;;3.66;60.07;98686.66;5010573;28;19930;-73
2023/11/22 06:16:24;;;;;;;;;;;;;;;3.78;60.04;98688.44;5004546;28;19933;-73
2023/11/22 06:19:12;;;;;;;;;;;;;;;3.72;59.60;98695.63;5002364;28;19932;-73
2023/11/22 06:22:02;;;;;;;;;;;;;;;3.78;59.25;98705.41;5009647;28;20523;-76
2023/11/22 06:24:50;;;;;;;;;;;;;;;3.83;59.63;98710.00;5004655;28;19934;-75
2023/11/22 06:27:40;;;;;;;;;;;;;;;3.68;59.40;98713.31;5013024;28;19933;-73
2023/11/22 06:30:30;;;;;;;;;;;;;;;3.62;59.76;98716.97;5012321;28;19937;-75
2023/11/22 06:33:18;;;;;;;;;;;;;;;3.80;59.88;98715.91;4993199;28;20035;-73
2023/11/22 06:36:06;;;;;;;;;;;;;;;3.88;60.15;98726.22;4997522;28;19933;-74
2023/11/22 06:38:56;;;;;;;;;;;;;;;3.90;58.95;98743.72;5006657;28;20510;-74
2023/11/22 06:41:44;;;;;;;;;;;;;;;3.79;59.57;98736.59;4995966;28;19926;-73
2023/11/22 06:44:32;;;;;;;;;;;;;;;3.85;59.39;98743.66;5010185;28;20081;-73
2023/11/22 06:47:20;;;;;;;;;;;;;;;4.10;59.19;98751.28;5010697;28;19933;-73
2023/11/22 06:50:10;;;;;;;;;;;;;;;3.94;58.95;98752.09;5009930;28;19941;-73
2023/11/22 06:52:59;;;;;;;;;;;;;;;3.83;59.08;98758.38;5001975;28;20410;-73
2023/11/22 06:55:49;;;;;;;;;;;;;;;3.66;59.45;98756.53;5004943;28;20391;-73
2023/11/22 06:58:38;;;;;;;;;;;;;;;3.74;59.91;98759.88;5012783;28;20303;-73
2023/11/22 07:01:26;;;;;;;;;;;;;;;3.73;59.92;98763.63;5011421;28;20381;-74
2023/11/22 07:04:14;;;;;;;;;;;;;;;3.75;59.77;98761.50;5010429;28;19933;-74
2023/11/22 07:07:04;;;;;;;;;;;;;;;3.73;60.25;98771.69;5001073;28;19926;-73
2023/11/22 07:09:52;;;;;;;;;;;;;;;3.71;59.28;98757.69;4997077;28;20012;-74
2023/11/22 07:12:43;;;;;;;;;;;;;;;3.45;59.88;98776.09;5001842;28;20370;-73
2023/11/22 07:15:31;;;;;;;;;;;;;;;3.34;60.70;98776.97;4996643;28;19925;-73
2023/11/22 07:18:19;;;;;;;;;;;;;;;3.46;60.58;98782.25;5010374;28;19926;-73
2023/11/22 07:21:08;;;;;;;;;;;;;;;3.37;59.40;98780.00;5008059;28;19951;-72
2023/11/22 07:23:58;;;;;;;;;;;;;;;3.34;59.29;98779.66;5010167;28;19925;-73
2023/11/22 07:26:47;;;;;;;;;;;;;;;3.27;59.75;98787.06;4996362;28;20375;-73
2023/11/22 07:29:37;;;;;;;;;;;;;;;3.32;59.01;98779.09;4994909;28;19932;-73
2023/11/22 07:32:25;;;;;;;;;;;;;;;3.31;58.17;98778.28;5007420;28;19925;-73
2023/11/22 07:35:13;;;;;;;;;;;;;;;3.34;57.35;98785.03;4997256;28;19926;-74
2023/11/22 07:38:03;;;;;;;;;;;;;;;3.23;57.70;98784.03;5011011;28;19984;-74
2023/11/22 07:40:51;;;;;;;;;;;;;;;3.42;58.74;98798.06;5010314;28;20398;-73
2023/11/22 07:43:39;;;;;;;;;;;;;;;3.41;58.64;98801.81;5010126;28;19932;-73
2023/11/22 07:46:30;;;;;;;;;;;;;;;3.50;59.37;98794.97;5002604;28;20028;-73
2023/11/22 07:49:19;;;;;;;;;;;;;;;3.53;60.07;98799.06;5004777;28;19934;-73
2023/11/22 07:52:07;;;;;;;;;;;;;;;3.53;60.02;98807.94;5007372;28;20304;-75
2023/11/22 07:54:55;;;;;;;;;;;;;;;3.67;60.51;98817.31;5013119;28;19937;-74
2023/11/22 07:57:43;;;;;;;;;;;;;;;3.63;60.79;98821.53;5007304;28;19925;-74
2023/11/22 08:00:33;;;;;;;;;;;;;;;3.71;60.03;98825.69;4996915;28;20453;-73
2023/11/22 08:03:23;;;;;;;;;;;;;;;3.70;60.57;98828.63;5011167;28;19926;-73
2023/11/22 08:06:11;;;;;;;;;;;;;;;3.74;60.72;98837.84;5012090;28;19936;-74
2023/11/22 08:09:01;;;;;;;;;;;;;;;3.71;61.47;98838.31;5004785;28;20017;-73
2023/11/22 08:11:49;;;;;;;;;;;;;;;3.73;60.96;98833.50;4998120;28;19933;-74
2023/11/22 08:14:37;;;;;;;;;;;;;;;3.54;60.94;98839.09;4991715;28;19983;-73
2023/11/22 08:17:27;;;;;;;;;;;;;;;3.74;60.58;98840.53;5007139;28;20379;-72
2023/11/22 08:20:17;;;;;;;;;;;;;;;3.74;60.18;98843.19;5009677;28;19926;-73
2023/11/22 08:23:08;;;;;;;;;;;;;;;3.47;61.59;98849.22;4993120;28;20017;-73
2023/11/22 08:25:56;;;;;;;;;;;;;;;3.50;61.20;98855.94;5010814;28;20020;-73
2023/11/22 08:28:44;;;;;;;;;;;;;;;3.65;60.92;98856.22;5005018;28;19932;-74
2023/11/22 08:31:36;;;;;;;;;;;;;;;3.67;60.65;98856.78;5006756;28;19933;-73
2023/11/22 08:34:24;;;;;;;;;;;;;;;3.63;60.98;98859.16;5005994;28;19929;-73
2023/11/22 08:37:13;;;;;;;;;;;;;;;3.47;61.49;98859.94;4993875;28;20332;-74
2023/11/22 08:40:01;;;;;;;;;;;;;;;3.62;61.55;98852.16;4997117;28;20019;-73
2023/11/22 08:42:49;;;;;;;;;;;;;;;3.77;61.24;98864.19;4997004;28;19926;-73
2023/11/22 08:45:37;;;;;;;;;;;;;;;3.73;60.58;98865.75;5006489;28;20015;-73
2023/11/22 08:48:25;;;;;;;;;;;;;;;3.77;60.98;98862.31;5009867;28;20263;-73
2023/11/22 08:51:15;;;;;;;;;;;;;;;3.69;60.66;98865.44;5010570;28;19926;-73
2023/11/22 08:54:04;;;;;;;;;;;;;;;3.55;60.74;98872.97;4994237;28;19933;-73
2023/11/22 08:56:52;;;;;;;;;;;;;;;3.59;61.17;98876.00;5011994;28;19929;-74
2023/11/22 08:59:40;;;;;;;;;;;;;;;3.50;60.89;98878.25;5014492;28;19951;-75
2023/11/22 09:02:28;;;;;;;;;;;;;;;3.52;60.64;98878.84;5012921;28;19932;-75
2023/11/22 09:05:19;;;;;;;;;;;;;;;3.43;60.83;98869.53;5011033;28;19945;-75
2023/11/22 09:08:12;;;;;;;;;;;;;;;3.42;61.18;98873.28;4998650;28;19925;-75
2023/11/22 09:11:10;;;;;;;;;;;;;;;3.49;61.48;98879.31;5011007;28;19932;-74
2023/11/22 09:14:00;;;;;;;;;;;;;;;3.29;61.59;98879.75;5009289;28;19925;-78
2023/11/22 09:16:53;;;;;;;;;;;;;;;3.44;60.60;98881.91;5013461;28;19925;-76
2023/11/22 09:19:42;;;;;;;;;;;;;;;3.41;60.84;98874.34;5011679;28;19941;-78
2023/11/22 09:22:30;;;;;;;;;;;;;;;3.55;60.78;98867.59;5011306;28;19933;-75
2023/11/22 09:25:19;;;;;;;;;;;;;;;3.49;60.65;98870.44;5013137;28;19936;-75
2023/11/22 09:28:11;;;;;;;;;;;;;;;3.70;60.37;98860.88;5006126;28;19925;-73
2023/11/22 09:31:05;;;;;;;;;;;;;;;3.70;59.85;98869.75;5009204;28;19972;-75
2023/11/22 09:33:54;;;;;;;;;;;;;;;3.73;60.21;98863.06;5012182;28;20387;-74
2023/11/22 09:36:42;;;;;;;;;;;;;;;3.85;60.04;98871.88;5011512;28;19936;-74
2023/11/22 09:39:33;;;;;;;;;;;;;;;3.72;60.09;98872.19;5011039;28;19940;-76
2023/11/22 09:42:21;;;;;;;;;;;;;;;3.41;60.73;98872.47;5005814;28;19926;-73
2023/11/22 09:45:11;;;;;;;;;;;;;;;3.37;61.43;98870.50;5010136;28;19926;-74
2023/11/22 09:47:59;;;;;;;;;;;;;;;3.47;60.66;98881.44;5009079;28;19926;-74
2023/11/22 09:50:50;;;;;;;;;;;;;;;3.49;61.16;98887.38;4996870;28;20060;-75
2023/11/22 09:53:50;;;;;;;;;;;;;;;3.40;61.77;98891.50;5005623;28;19937;-73
2023/11/22 09:56:38;;;;;;;;;;;;;;;3.29;60.84;98895.88;5009478;28;20005;-75
2023/11/22 09:59:26;;;;;;;;;;;;;;;3.40;61.20;98903.06;5012301;28;19937;-75
2023/11/22 10:02:16;;;;;;;;;;;;;;;3.38;60.73;98899.81;5009788;28;19925;-73
2023/11/22 10:05:04;;;;;;;;;;;;;;;3.37;60.67;98910.81;5010366;28;19929;-73
2023/11/22 10:07:53;;;;;;;;;;;;;;;3.40;60.36;98918.38;5006157;28;19929;-73
2023/11/22 10:10:44;;;;;;;;;;;;;;;3.56;60.27;98928.34;5009161;28;20464;-73
2023/11/22 10:13:32;;;;;;;;;;;;;;;3.48;60.67;98923.38;5009745;28;19951;-73
2023/11/22 10:16:20;;;;;;;;;;;;;;;3.42;59.81;98927.00;5009417;28;19933;-73
2023/11/22 10:19:10;;;;;;;;;;;;;;;3.29;60.02;98938.84;4993920;28;20371;-73
2023/11/22 10:22:05;;;;;;;;;;;;;;;3.50;60.09;98933.88;5010205;28;20351;-73
2023/11/22 10:24:59;;;;;;;;;;;;;;;3.49;59.92;98938.41;5011985;28;19932;-73
2023/11/22 10:27:47;;;;;;;;;;;;;;;3.25;59.93;98942.25;4998614;28;19932;-74
2023/11/22 10:30:40;;;;;;;;;;;;;;;3.34;60.61;98936.25;5011760;28;19926;-73
2023/11/22 10:33:28;;;;;;;;;;;;;;;3.33;60.43;98937.31;5013050;28;20418;-74
2023/11/22 10:36:20;;;;;;;;;;;;;;;3.45;60.30;98931.88;5013369;28;19925;-73
2023/11/22 10:39:15;;;;;;;;;;;;;;;3.75;59.74;98930.84;5008062;28;19926;-75
2023/11/22 10:42:04;;;;;;;;;;;;;;;3.55;59.22;98936.66;5009927;28;19933;-73
2023/11/22 10:44:52;;;;;;;;;;;;;;;3.48;59.70;98928.75;5009971;28;20028;-73
2023/11/22 10:47:42;;;;;;;;;;;;;;;3.61;59.03;98931.13;5005035;28;20359;-73
2023/11/22 10:50:31;;;;;;;;;;;;;;;3.60;59.12;98916.06;5012709;28;19929;-73
2023/11/22 10:53:25;;;;;;;;;;;;;;;3.79;59.09;98918.56;5010943;28;19933;-73
2023/11/22 10:56:15;;;;;;;;;;;;;;;3.70;59.07;98917.31;5012282;28;20000;-74
2023/11/22 10:59:03;;;;;;;;;;;;;;;3.79;58.92;98911.28;5010638;28;19929;-73
2023/11/22 11:01:52;;;;;;;;;;;;;;;3.85;59.50;98899.56;5013024;28;19926;-73
2023/11/22 11:04:46;;;;;;;;;;;;;;;3.85;58.69;98914.88;5011347;28;19995;-73
2023/11/22 11:07:36;;;;;;;;;;;;;;;3.64;59.01;98914.53;5010470;28;20303;-73
2023/11/22 11:10:25;;;;;;;;;;;;;;;3.47;60.07;98919.06;5012761;28;20405;-73
2023/11/22 11:13:14;;;;;;;;;;;;;;;3.57;59.89;98927.31;5011559;28;19933;-73
2023/11/22 11:16:02;;;;;;;;;;;;;;;3.75;59.18;98941.59;5012125;28;20020;-73
2023/11/22 11:18:50;;;;;;;;;;;;;;;3.67;58.53;98945.47;5010897;28;20037;-73
2023/11/22 11:21:39;;;;;;;;;;;;;;;3.68;59.05;98941.75;5009320;28;19926;-73
2023/11/22 11:24:27;;;;;;;;;;;;;;;3.70;58.76;98938.81;5008057;28;20417;-73
2023/11/22 11:27:19;;;;;;;;;;;;;;;3.60;59.15;98945.63;5012159;28;20372;-73
2023/11/22 11:30:22;;;;;;;;;;;;;;;3.64;59.40;98948.66;5008515;28;20383;-73
2023/11/22 11:33:12;;;;;;;;;;;;;;;3.58;58.79;98947.75;5012736;28;19948;-73
2023/11/22 11:36:03;;;;;;;;;;;;;;;3.68;58.92;98961.38;5000309;28;20284;-73
2023/11/22 11:38:52;;;;;;;;;;;;;;;3.74;59.16;98954.22;5013092;28;19932;-75
2023/11/22 11:41:40;;;;;;;;;;;;;;;3.72;59.02;98958.19;5011573;28;19926;-73
2023/11/22 11:44:30;;;;;;;;;;;;;;;3.82;58.72;98959.19;5012579;28;19925;-74
2023/11/22 11:47:19;;;;;;;;;;;;;;;3.94;58.14;98961.78;5014602;28;20019;-74
2023/11/22 11:50:07;;;;;;;;;;;;;;;3.98;58.42;98972.91;5012382;28;19926;-73
2023/11/22 11:52:55;;;;;;;;;;;;;;;3.91;59.16;98970.38;5005224;28;19929;-73
2023/11/22 11:55:45;;;;;;;;;;;;;;;3.83;59.56;98965.38;5008418;28;19997;-73
2023/11/22 11:58:33;;;;;;;;;;;;;;;3.96;58.01;98973.16;4998542;28;20009;-73
2023/11/22 12:01:22;;;;;;;;;;;;;;;3.94;58.30;98972.56;5008693;28;19929;-73
2023/11/22 12:04:11;;;;;;;;;;;;;;;3.94;57.86;98969.88;5008370;28;20422;-73
2023/11/22 12:07:01;;;;;;;;;;;;;;;3.83;57.98;98976.13;5008899;28;19925;-73
2023/11/22 12:09:49;;;;;;;;;;;;;;;3.67;59.46;98983.94;5007206;28;19926;-73
2023/11/22 12:12:38;;;;;;;;;;;;;;;3.80;59.16;98987.38;5006603;28;20427;-74
2023/11/22 12:15:30;;;;;;;;;;;;;;;3.87;58.62;99001.47;5011069;28;19925;-73
2023/11/22 12:18:20;;;;;;;;;;;;;;;3.82;57.86;99004.88;5009950;28;19925;-73
2023/11/22 12:21:10;;;;;;;;;;;;;;;4.02;58.02;98999.06;5012093;28;20315;-73
2023/11/22 12:24:05;;;;;;;;;;;;;;;4.11;57.91;98999.50;4986072;28;19934;-73
2023/11/22 12:26:55;;;;;;;;;;;;;;;4.07;58.38;98993.78;4993550;28;19925;-73
2023/11/22 12:29:43;;;;;;;;;;;;;;;4.30;57.90;98995.50;5006581;28;19926;-73
2023/11/22 12:32:32;;;;;;;;;;;;;;;3.99;56.85;98991.47;5010333;28;20015;-73
2023/11/22 12:35:22;;;;;;;;;;;;;;;3.70;57.87;98998.75;5006740;28;20088;-74
2023/11/22 12:38:10;;;;;;;;;;;;;;;3.72;58.32;98985.88;5010155;28;19929;-73
2023/11/22 12:40:58;;;;;;;;;;;;;;;3.70;58.22;98995.25;4998109;28;19925;-74
2023/11/22 12:43:57;;;;;;;;;;;;;;;3.82;57.98;98990.63;5003008;28;20011;-74
2023/11/22 12:46:46;;;;;;;;;;;;;;;3.88;57.73;98989.66;5010814;28;20094;-73
2023/11/22 12:49:34;;;;;;;;;;;;;;;3.79;58.06;98993.81;5009865;28;19929;-73
2023/11/22 12:52:26;;;;;;;;;;;;;;;3.56;58.75;99000.88;5009448;28;20048;-73
2023/11/22 12:55:15;;;;;;;;;;;;;;;3.70;58.16;98987.19;5009969;28;20015;-73
2023/11/22 12:58:04;;;;;;;;;;;;;;;3.71;58.45;98984.25;5009618;28;20371;-73
2023/11/22 13:00:57;;;;;;;;;;;;;;;3.59;58.20;98986.16;5007744;28;20450;-73
2023/11/22 13:03:46;;;;;;;;;;;;;;;3.87;58.72;98993.41;5008451;28;19925;-73
2023/11/22 13:06:34;;;;;;;;;;;;;;;3.96;57.99;98989.28;5011740;28;20011;-73
2023/11/22 13:09:25;;;;;;;;;;;;;;;3.83;57.25;98998.44;5010188;28;19974;-73
2023/11/22 13:12:13;;;;;;;;;;;;;;;3.84;57.93;99000.09;5007475;28;20435;-73
2023/11/22 13:15:01;;;;;;;;;;;;;;;3.70;58.37;98989.88;5003320;28;19932;-73
2023/11/22 13:17:50;;;;;;;;;;;;;;;3.86;57.62;98995.28;5004505;28;19925;-73
2023/11/22 13:20:40;;;;;;;;;;;;;;;3.92;57.12;98993.50;4999014;28;20064;-72
2023/11/22 13:23:28;;;;;;;;;;;;;;;3.91;57.94;98994.56;5009747;28;19930;-75
2023/11/22 13:26:18;;;;;;;;;;;;;;;4.02;57.82;98992.88;5005692;28;19936;-73
2023/11/22 13:29:11;;;;;;;;;;;;;;;3.82;58.68;98979.88;5009127;28;19926;-73
2023/11/22 13:32:00;;;;;;;;;;;;;;;4.05;57.65;98974.38;5008180;28;19977;-73
2023/11/22 13:34:49;;;;;;;;;;;;;;;3.99;57.41;98969.94;5002611;28;19971;-74
2023/11/22 13:37:41;;;;;;;;;;;;;;;4.09;58.07;98969.31;4995236;28;19925;-73
2023/11/22 13:40:30;;;;;;;;;;;;;;;4.28;57.87;98962.66;4986600;28;19926;-73
2023/11/22 13:43:20;;;;;;;;;;;;;;;4.05;57.78;98962.78;5005742;28;20130;-73
2023/11/22 13:46:10;;;;;;;;;;;;;;;4.08;57.32;98947.00;5009711;28;19948;-73
2023/11/22 13:48:58;;;;;;;;;;;;;;;4.02;57.99;98944.47;4990253;28;19929;-74
2023/11/22 13:51:46;;;;;;;;;;;;;;;4.03;57.28;98946.91;5003085;28;19940;-73
2023/11/22 13:54:37;;;;;;;;;;;;;;;4.19;57.62;98945.28;5010517;28;19925;-73
2023/11/22 13:57:25;;;;;;;;;;;;;;;3.73;57.63;98959.81;5014069;28;20310;-73
2023/11/22 14:00:18;;;;;;;;;;;;;;;3.71;58.87;98962.75;5012928;28;19931;-73
2023/11/22 14:03:06;;;;;;;;;;;;;;;3.92;58.89;98996.19;5009872;28;19926;-73
2023/11/22 14:05:57;;;;;;;;;;;;;;;3.89;58.59;98989.44;5014585;28;19932;-73
2023/11/22 14:08:45;;;;;;;;;;;;;;;3.92;58.09;98988.94;5007453;28;20272;-73
2023/11/22 14:11:36;;;;;;;;;;;;;;;3.82;57.69;99007.56;5013849;28;19933;-75
2023/11/22 14:14:24;;;;;;;;;;;;;;;3.64;58.20;99022.00;5014201;28;19949;-73
2023/11/22 14:17:14;;;;;;;;;;;;;;;3.58;58.66;99020.28;5020449;28;19929;-75
2023/11/22 14:20:03;;;;;;;;;;;;;;;3.46;59.43;99021.34;5014193;28;19959;-73
2023/11/22 14:22:52;;;;;;;;;;;;;;;3.33;59.49;99019.75;5009591;28;19937;-73
2023/11/22 14:25:40;;;;;;;;;;;;;;;3.40;59.31;99028.50;5011262;28;19932;-73
2023/11/22 14:28:29;;;;;;;;;;;;;;;3.61;58.92;99040.47;5009955;28;19936;-73
2023/11/22 14:31:18;;;;;;;;;;;;;;;3.69;58.77;99040.13;5013800;28;19961;-73
2023/11/22 14:34:07;;;;;;;;;;;;;;;3.70;59.51;99038.25;5009228;28;19925;-72
2023/11/22 14:36:58;;;;;;;;;;;;;;;3.74;58.82;99042.09;4993860;28;20398;-72
2023/11/22 14:39:49;;;;;;;;;;;;;;;3.76;58.50;99050.72;5006412;28;20002;-73
2023/11/22 14:42:41;;;;;;;;;;;;;;;3.73;58.09;99035.06;5012090;28;19925;-72
2023/11/22 14:45:29;;;;;;;;;;;;;;;3.79;58.24;99029.56;5008348;28;20363;-72
2023/11/22 14:48:21;;;;;;;;;;;;;;;3.72;58.07;99022.69;5002584;28;19984;-73
2023/11/22 14:51:10;;;;;;;;;;;;;;;3.79;58.10;99009.94;5007664;28;19936;-72
2023/11/22 14:53:58;;;;;;;;;;;;;;;3.72;58.29;99002.00;5009876;28;20402;-72